sensor_id;sensor_type;location;lat;lon;timestamp;temperature;humidity
12684;DHT22;6406;59.312;18.058;2024-02-21T00:01:37;-0.10;99.90
12684;DHT22;6406;59.312;18.058;2024-02-21T00:04:05;-0.10;99.90
12684;DHT22;6406;59.312;18.058;2024-02-21T00:06:32;-2.80;99.90
12684;DHT22;6406;59.312;18.058;2024-02-21T00:09:02;-0.10;99.90
12684;DHT22;6406;59.312;18.058;2024-02-21T00:11:32;0.00;99.90
12684;DHT22;6406;59.312;18.058;2024-02-21T00:14:00;0.00;99.90
12684;DHT22;6406;59.312;18.058;2024-02-21T00:16:27;0.10;99.90
12684;DHT22;6406;59.312;18.058;2024-02-21T00:18:55;-0.10;99.90
12684;DHT22;6406;59.312;18.058;2024-02-21T00:21:22;-0.20;99.90
12684;DHT22;6406;59.312;18.058;2024-02-21T00:23:50;-0.10;99.90
12684;DHT22;6406;59.312;18.058;2024-02-21T00:26:22;-0.10;99.90
12684;DHT22;6406;59.312;18.058;2024-02-21T00:28:52;-0.30;99.90
12684;DHT22;6406;59.312;18.058;2024-02-21T00:31:20;-0.10;99.90
12684;DHT22;6406;59.312;18.058;2024-02-21T00:33:46;-0.10;99.90
12684;DHT22;6406;59.312;18.058;2024-02-21T00:36:14;0.00;99.90
12684;DHT22;6406;59.312;18.058;2024-02-21T00:38:44;0.00;99.90
12684;DHT22;6406;59.312;18.058;2024-02-21T00:41:15;0.00;99.90
12684;DHT22;6406;59.312;18.058;2024-02-21T00:43:44;0.00;99.90
12684;DHT22;6406;59.312;18.058;2024-02-21T00:46:14;-0.10;99.90
12684;DHT22;6406;59.312;18.058;2024-02-21T00:48:41;-0.10;99.90
12684;DHT22;6406;59.312;18.058;2024-02-21T00:51:09;0.00;99.90
12684;DHT22;6406;59.312;18.058;2024-02-21T00:53:36;-1.60;99.90
12684;DHT22;6406;59.312;18.058;2024-02-21T00:56:06;-0.20;99.90
12684;DHT22;6406;59.312;18.058;2024-02-21T00:58:34;-0.10;99.90
12684;DHT22;6406;59.312;18.058;2024-02-21T01:01:03;-0.10;99.90
12684;DHT22;6406;59.312;18.058;2024-02-21T01:03:31;-0.30;99.90
12684;DHT22;6406;59.312;18.058;2024-02-21T01:05:59;-0.50;99.90
12684;DHT22;6406;59.312;18.058;2024-02-21T01:08:28;0.10;99.90
12684;DHT22;6406;59.312;18.058;2024-02-21T01:10:55;0.00;99.90
12684;DHT22;6406;59.312;18.058;2024-02-21T01:13:23;2.10;99.90
12684;DHT22;6406;59.312;18.058;2024-02-21T01:15:51;0.10;99.90
12684;DHT22;6406;59.312;18.058;2024-02-21T01:18:21;0.10;99.90
12684;DHT22;6406;59.312;18.058;2024-02-21T01:20:48;-0.10;99.90
12684;DHT22;6406;59.312;18.058;2024-02-21T01:23:16;0.10;99.90
12684;DHT22;6406;59.312;18.058;2024-02-21T01:25:44;0.10;99.90
12684;DHT22;6406;59.312;18.058;2024-02-21T01:28:11;0.10;99.90
12684;DHT22;6406;59.312;18.058;2024-02-21T01:30:39;0.10;99.90
12684;DHT22;6406;59.312;18.058;2024-02-21T01:33:14;0.10;99.90
12684;DHT22;6406;59.312;18.058;2024-02-21T01:35:43;0.20;99.90
12684;DHT22;6406;59.312;18.058;2024-02-21T01:38:12;0.20;99.90
12684;DHT22;6406;59.312;18.058;2024-02-21T01:40:40;0.20;99.90
12684;DHT22;6406;59.312;18.058;2024-02-21T01:43:18;0.20;99.90
12684;DHT22;6406;59.312;18.058;2024-02-21T01:45:48;0.20;99.90
12684;DHT22;6406;59.312;18.058;2024-02-21T01:48:17;0.20;99.90
12684;DHT22;6406;59.312;18.058;2024-02-21T01:50:47;0.30;99.90
12684;DHT22;6406;59.312;18.058;2024-02-21T01:53:22;0.30;99.90
12684;DHT22;6406;59.312;18.058;2024-02-21T01:55:52;0.20;99.90
12684;DHT22;6406;59.312;18.058;2024-02-21T01:58:21;0.30;99.90
12684;DHT22;6406;59.312;18.058;2024-02-21T02:00:50;1.00;99.90
12684;DHT22;6406;59.312;18.058;2024-02-21T02:03:18;0.20;99.90
12684;DHT22;6406;59.312;18.058;2024-02-21T02:05:52;0.30;99.90
12684;DHT22;6406;59.312;18.058;2024-02-21T02:08:22;0.50;99.90
12684;DHT22;6406;59.312;18.058;2024-02-21T02:10:53;0.30;99.90
12684;DHT22;6406;59.312;18.058;2024-02-21T02:13:21;0.30;99.90
12684;DHT22;6406;59.312;18.058;2024-02-21T02:15:49;0.30;99.90
12684;DHT22;6406;59.312;18.058;2024-02-21T02:18:19;0.30;99.90
12684;DHT22;6406;59.312;18.058;2024-02-21T02:20:52;0.30;99.90
12684;DHT22;6406;59.312;18.058;2024-02-21T02:23:25;0.40;99.90
12684;DHT22;6406;59.312;18.058;2024-02-21T02:25:57;0.40;99.90
12684;DHT22;6406;59.312;18.058;2024-02-21T02:28:28;0.40;99.90
12684;DHT22;6406;59.312;18.058;2024-02-21T02:30:56;0.40;99.90
12684;DHT22;6406;59.312;18.058;2024-02-21T02:33:23;0.50;99.90
12684;DHT22;6406;59.312;18.058;2024-02-21T02:35:50;0.50;99.90
12684;DHT22;6406;59.312;18.058;2024-02-21T02:38:21;0.50;99.90
12684;DHT22;6406;59.312;18.058;2024-02-21T02:40:55;1.00;99.90
12684;DHT22;6406;59.312;18.058;2024-02-21T02:43:22;0.50;99.90
12684;DHT22;6406;59.312;18.058;2024-02-21T02:45:50;0.50;99.90
12684;DHT22;6406;59.312;18.058;2024-02-21T02:48:17;0.60;99.90
12684;DHT22;6406;59.312;18.058;2024-02-21T02:50:45;0.60;99.90
12684;DHT22;6406;59.312;18.058;2024-02-21T02:53:13;0.60;99.90
12684;DHT22;6406;59.312;18.058;2024-02-21T02:55:42;0.60;99.90
12684;DHT22;6406;59.312;18.058;2024-02-21T02:58:12;0.60;99.90
12684;DHT22;6406;59.312;18.058;2024-02-21T03:00:39;0.60;99.90
12684;DHT22;6406;59.312;18.058;2024-02-21T03:03:07;0.60;99.90
12684;DHT22;6406;59.312;18.058;2024-02-21T03:05:35;0.70;99.90
12684;DHT22;6406;59.312;18.058;2024-02-21T03:08:03;0.70;99.90
12684;DHT22;6406;59.312;18.058;2024-02-21T03:10:32;0.50;99.90
12684;DHT22;6406;59.312;18.058;2024-02-21T03:13:00;0.60;99.90
12684;DHT22;6406;59.312;18.058;2024-02-21T03:15:29;0.70;99.90
12684;DHT22;6406;59.312;18.058;2024-02-21T03:17:56;0.80;99.90
12684;DHT22;6406;59.312;18.058;2024-02-21T03:20:23;0.80;99.90
12684;DHT22;6406;59.312;18.058;2024-02-21T03:22:51;1.00;99.90
12684;DHT22;6406;59.312;18.058;2024-02-21T03:25:18;0.80;99.90
12684;DHT22;6406;59.312;18.058;2024-02-21T03:27:46;2.80;99.90
12684;DHT22;6406;59.312;18.058;2024-02-21T03:30:14;0.80;99.90
12684;DHT22;6406;59.312;18.058;2024-02-21T03:32:42;0.80;99.90
12684;DHT22;6406;59.312;18.058;2024-02-21T03:35:10;1.90;99.90
12684;DHT22;6406;59.312;18.058;2024-02-21T03:37:37;0.80;99.90
12684;DHT22;6406;59.312;18.058;2024-02-21T03:40:07;0.80;99.90
12684;DHT22;6406;59.312;18.058;2024-02-21T03:42:35;0.90;99.90
12684;DHT22;6406;59.312;18.058;2024-02-21T03:45:02;0.90;99.90
12684;DHT22;6406;59.312;18.058;2024-02-21T03:47:30;1.00;99.90
12684;DHT22;6406;59.312;18.058;2024-02-21T03:49:59;0.90;99.90
12684;DHT22;6406;59.312;18.058;2024-02-21T03:52:26;0.90;99.90
12684;DHT22;6406;59.312;18.058;2024-02-21T03:54:54;0.90;99.90
12684;DHT22;6406;59.312;18.058;2024-02-21T03:57:22;1.00;99.90
12684;DHT22;6406;59.312;18.058;2024-02-21T03:59:50;1.00;99.90
12684;DHT22;6406;59.312;18.058;2024-02-21T04:02:18;2.80;99.90
12684;DHT22;6406;59.312;18.058;2024-02-21T04:04:45;1.00;99.90
12684;DHT22;6406;59.312;18.058;2024-02-21T04:07:16;1.00;99.90
12684;DHT22;6406;59.312;18.058;2024-02-21T04:09:43;1.00;99.90
12684;DHT22;6406;59.312;18.058;2024-02-21T04:12:10;1.10;99.90
12684;DHT22;6406;59.312;18.058;2024-02-21T04:14:38;1.00;99.90
12684;DHT22;6406;59.312;18.058;2024-02-21T04:17:05;1.10;99.90
12684;DHT22;6406;59.312;18.058;2024-02-21T04:19:33;1.10;99.90
12684;DHT22;6406;59.312;18.058;2024-02-21T04:22:00;1.20;99.90
12684;DHT22;6406;59.312;18.058;2024-02-21T04:24:29;2.50;99.90
12684;DHT22;6406;59.312;18.058;2024-02-21T04:26:56;1.10;99.90
12684;DHT22;6406;59.312;18.058;2024-02-21T04:29:24;1.20;99.90
12684;DHT22;6406;59.312;18.058;2024-02-21T04:31:51;1.20;99.90
12684;DHT22;6406;59.312;18.058;2024-02-21T04:34:18;1.00;99.90
12684;DHT22;6406;59.312;18.058;2024-02-21T04:36:45;1.30;99.90
12684;DHT22;6406;59.312;18.058;2024-02-21T04:39:13;1.30;99.90
12684;DHT22;6406;59.312;18.058;2024-02-21T04:41:41;1.30;99.90
12684;DHT22;6406;59.312;18.058;2024-02-21T04:44:09;1.30;99.90
12684;DHT22;6406;59.312;18.058;2024-02-21T04:46:37;1.40;99.90
12684;DHT22;6406;59.312;18.058;2024-02-21T04:49:04;1.40;99.90
12684;DHT22;6406;59.312;18.058;2024-02-21T04:51:31;1.30;99.90
12684;DHT22;6406;59.312;18.058;2024-02-21T04:53:59;1.30;99.90
12684;DHT22;6406;59.312;18.058;2024-02-21T04:56:26;0.40;99.90
12684;DHT22;6406;59.312;18.058;2024-02-21T04:58:55;1.50;99.90
12684;DHT22;6406;59.312;18.058;2024-02-21T05:01:22;1.30;99.90
12684;DHT22;6406;59.312;18.058;2024-02-21T05:03:50;1.10;99.90
12684;DHT22;6406;59.312;18.058;2024-02-21T05:06:17;1.20;99.90
12684;DHT22;6406;59.312;18.058;2024-02-21T05:08:45;1.60;99.90
12684;DHT22;6406;59.312;18.058;2024-02-21T05:11:12;1.50;99.90
12684;DHT22;6406;59.312;18.058;2024-02-21T05:13:39;1.60;99.90
12684;DHT22;6406;59.312;18.058;2024-02-21T05:16:08;1.60;99.90
12684;DHT22;6406;59.312;18.058;2024-02-21T05:18:35;1.60;99.90
12684;DHT22;6406;59.312;18.058;2024-02-21T05:21:02;1.60;99.90
12684;DHT22;6406;59.312;18.058;2024-02-21T05:23:30;1.60;99.90
12684;DHT22;6406;59.312;18.058;2024-02-21T05:25:57;1.70;99.90
12684;DHT22;6406;59.312;18.058;2024-02-21T05:28:25;1.70;99.90
12684;DHT22;6406;59.312;18.058;2024-02-21T05:30:52;1.80;99.90
12684;DHT22;6406;59.312;18.058;2024-02-21T05:33:20;1.80;99.90
12684;DHT22;6406;59.312;18.058;2024-02-21T05:35:48;1.80;99.90
12684;DHT22;6406;59.312;18.058;2024-02-21T05:38:15;1.90;99.90
12684;DHT22;6406;59.312;18.058;2024-02-21T05:40:44;1.80;99.90
12684;DHT22;6406;59.312;18.058;2024-02-21T05:43:13;1.80;99.90
12684;DHT22;6406;59.312;18.058;2024-02-21T05:45:41;1.80;99.90
12684;DHT22;6406;59.312;18.058;2024-02-21T05:48:08;2.90;99.90
12684;DHT22;6406;59.312;18.058;2024-02-21T05:50:36;1.80;99.90
12684;DHT22;6406;59.312;18.058;2024-02-21T05:53:04;1.80;99.90
12684;DHT22;6406;59.312;18.058;2024-02-21T05:55:31;1.80;99.90
12684;DHT22;6406;59.312;18.058;2024-02-21T05:57:58;1.30;99.90
12684;DHT22;6406;59.312;18.058;2024-02-21T06:00:25;1.90;99.90
12684;DHT22;6406;59.312;18.058;2024-02-21T06:02:53;2.10;99.90
12684;DHT22;6406;59.312;18.058;2024-02-21T06:05:21;2.00;99.90
12684;DHT22;6406;59.312;18.058;2024-02-21T06:07:49;1.90;99.90
12684;DHT22;6406;59.312;18.058;2024-02-21T06:10:17;1.90;99.90
12684;DHT22;6406;59.312;18.058;2024-02-21T06:12:44;1.90;99.90
12684;DHT22;6406;59.312;18.058;2024-02-21T06:15:12;1.90;99.90
12684;DHT22;6406;59.312;18.058;2024-02-21T06:17:39;1.90;99.90
12684;DHT22;6406;59.312;18.058;2024-02-21T06:20:08;1.90;99.90
12684;DHT22;6406;59.312;18.058;2024-02-21T06:22:35;1.90;99.90
12684;DHT22;6406;59.312;18.058;2024-02-21T06:25:08;1.80;99.90
12684;DHT22;6406;59.312;18.058;2024-02-21T06:27:40;1.90;99.90
12684;DHT22;6406;59.312;18.058;2024-02-21T06:30:13;1.80;99.90
12684;DHT22;6406;59.312;18.058;2024-02-21T06:32:42;1.90;99.90
12684;DHT22;6406;59.312;18.058;2024-02-21T06:35:10;2.00;99.90
12684;DHT22;6406;59.312;18.058;2024-02-21T06:37:39;2.00;99.90
12684;DHT22;6406;59.312;18.058;2024-02-21T06:40:11;1.90;99.90
12684;DHT22;6406;59.312;18.058;2024-02-21T06:42:39;2.00;99.90
12684;DHT22;6406;59.312;18.058;2024-02-21T06:45:08;2.00;99.90
12684;DHT22;6406;59.312;18.058;2024-02-21T06:47:37;2.00;99.90
12684;DHT22;6406;59.312;18.058;2024-02-21T06:50:06;2.10;99.90
12684;DHT22;6406;59.312;18.058;2024-02-21T06:52:35;2.00;99.90
12684;DHT22;6406;59.312;18.058;2024-02-21T06:55:03;1.70;99.90
12684;DHT22;6406;59.312;18.058;2024-02-21T06:57:38;2.50;99.90
12684;DHT22;6406;59.312;18.058;2024-02-21T07:00:09;2.20;99.90
12684;DHT22;6406;59.312;18.058;2024-02-21T07:02:39;2.20;99.90
12684;DHT22;6406;59.312;18.058;2024-02-21T07:05:12;2.20;99.90
12684;DHT22;6406;59.312;18.058;2024-02-21T07:07:40;2.20;99.90
12684;DHT22;6406;59.312;18.058;2024-02-21T07:10:08;2.20;99.90
12684;DHT22;6406;59.312;18.058;2024-02-21T07:12:39;2.30;99.90
12684;DHT22;6406;59.312;18.058;2024-02-21T07:15:09;2.10;99.90
12684;DHT22;6406;59.312;18.058;2024-02-21T07:17:37;2.20;99.90
12684;DHT22;6406;59.312;18.058;2024-02-21T07:20:07;2.30;99.90
12684;DHT22;6406;59.312;18.058;2024-02-21T07:22:35;2.30;99.90
12684;DHT22;6406;59.312;18.058;2024-02-21T07:25:04;2.20;99.90
12684;DHT22;6406;59.312;18.058;2024-02-21T07:27:33;2.30;99.90
12684;DHT22;6406;59.312;18.058;2024-02-21T07:30:03;2.40;99.90
12684;DHT22;6406;59.312;18.058;2024-02-21T07:32:32;2.40;99.90
12684;DHT22;6406;59.312;18.058;2024-02-21T07:35:00;2.40;99.90
12684;DHT22;6406;59.312;18.058;2024-02-21T07:37:30;2.50;99.90
12684;DHT22;6406;59.312;18.058;2024-02-21T07:40:02;2.50;99.90
12684;DHT22;6406;59.312;18.058;2024-02-21T07:42:32;2.50;99.90
12684;DHT22;6406;59.312;18.058;2024-02-21T07:45:04;2.40;99.90
12684;DHT22;6406;59.312;18.058;2024-02-21T07:47:36;2.80;99.90
12684;DHT22;6406;59.312;18.058;2024-02-21T07:50:07;2.50;99.90
12684;DHT22;6406;59.312;18.058;2024-02-21T07:52:35;2.50;99.90
12684;DHT22;6406;59.312;18.058;2024-02-21T07:55:08;2.70;99.90
12684;DHT22;6406;59.312;18.058;2024-02-21T07:57:44;0.90;99.90
12684;DHT22;6406;59.312;18.058;2024-02-21T08:00:22;2.70;99.90
12684;DHT22;6406;59.312;18.058;2024-02-21T08:03:09;2.70;99.90
12684;DHT22;6406;59.312;18.058;2024-02-21T08:05:42;2.70;99.90
12684;DHT22;6406;59.312;18.058;2024-02-21T08:08:15;2.70;99.90
12684;DHT22;6406;59.312;18.058;2024-02-21T08:10:54;2.70;99.90
12684;DHT22;6406;59.312;18.058;2024-02-21T08:13:36;2.70;99.90
12684;DHT22;6406;59.312;18.058;2024-02-21T08:16:07;2.80;99.90
12684;DHT22;6406;59.312;18.058;2024-02-21T08:18:37;2.70;99.90
12684;DHT22;6406;59.312;18.058;2024-02-21T08:21:05;2.70;99.90
12684;DHT22;6406;59.312;18.058;2024-02-21T08:23:33;2.80;99.90
12684;DHT22;6406;59.312;18.058;2024-02-21T08:26:03;2.80;99.90
12684;DHT22;6406;59.312;18.058;2024-02-21T08:28:40;2.80;99.90
12684;DHT22;6406;59.312;18.058;2024-02-21T08:31:19;2.90;99.90
12684;DHT22;6406;59.312;18.058;2024-02-21T08:33:49;2.90;99.90
12684;DHT22;6406;59.312;18.058;2024-02-21T08:36:25;2.90;99.90
12684;DHT22;6406;59.312;18.058;2024-02-21T08:39:05;3.00;99.90
12684;DHT22;6406;59.312;18.058;2024-02-21T08:41:49;3.00;99.90
12684;DHT22;6406;59.312;18.058;2024-02-21T08:44:19;1.10;99.90
12684;DHT22;6406;59.312;18.058;2024-02-21T08:46:49;3.00;99.90
12684;DHT22;6406;59.312;18.058;2024-02-21T08:49:32;3.00;99.90
12684;DHT22;6406;59.312;18.058;2024-02-21T08:52:01;4.00;99.90
12684;DHT22;6406;59.312;18.058;2024-02-21T08:54:30;3.10;99.90
12684;DHT22;6406;59.312;18.058;2024-02-21T08:56:59;3.70;99.90
12684;DHT22;6406;59.312;18.058;2024-02-21T08:59:29;3.20;99.90
12684;DHT22;6406;59.312;18.058;2024-02-21T09:02:09;3.20;99.90
12684;DHT22;6406;59.312;18.058;2024-02-21T09:04:40;3.40;99.90
12684;DHT22;6406;59.312;18.058;2024-02-21T09:07:17;3.20;99.90
12684;DHT22;6406;59.312;18.058;2024-02-21T09:09:46;3.20;99.90
12684;DHT22;6406;59.312;18.058;2024-02-21T09:12:14;4.00;99.90
12684;DHT22;6406;59.312;18.058;2024-02-21T09:14:43;3.30;99.90
12684;DHT22;6406;59.312;18.058;2024-02-21T09:17:22;3.40;99.90
12684;DHT22;6406;59.312;18.058;2024-02-21T09:19:53;1.80;99.90
12684;DHT22;6406;59.312;18.058;2024-02-21T09:22:24;3.40;99.90
12684;DHT22;6406;59.312;18.058;2024-02-21T09:24:52;3.40;99.90
12684;DHT22;6406;59.312;18.058;2024-02-21T09:27:23;3.50;99.90
12684;DHT22;6406;59.312;18.058;2024-02-21T09:30:00;3.50;99.90
12684;DHT22;6406;59.312;18.058;2024-02-21T09:32:32;3.50;99.90
12684;DHT22;6406;59.312;18.058;2024-02-21T09:35:04;3.90;99.90
12684;DHT22;6406;59.312;18.058;2024-02-21T09:40:17;3.60;99.90
12684;DHT22;6406;59.312;18.058;2024-02-21T09:42:52;3.50;99.90
12684;DHT22;6406;59.312;18.058;2024-02-21T09:51:11;3.80;99.90
12684;DHT22;6406;59.312;18.058;2024-02-21T09:53:48;3.70;99.90
12684;DHT22;6406;59.312;18.058;2024-02-21T09:56:29;3.80;99.90
12684;DHT22;6406;59.312;18.058;2024-02-21T09:59:08;3.70;99.90
12684;DHT22;6406;59.312;18.058;2024-02-21T10:01:45;3.80;99.90
12684;DHT22;6406;59.312;18.058;2024-02-21T10:04:16;3.80;99.90
12684;DHT22;6406;59.312;18.058;2024-02-21T10:06:55;3.70;99.90
12684;DHT22;6406;59.312;18.058;2024-02-21T10:12:29;3.50;99.90
12684;DHT22;6406;59.312;18.058;2024-02-21T10:15:03;3.70;99.90
12684;DHT22;6406;59.312;18.058;2024-02-21T10:17:31;3.70;99.90
12684;DHT22;6406;59.312;18.058;2024-02-21T10:20:07;3.90;99.90
12684;DHT22;6406;59.312;18.058;2024-02-21T10:23:01;2.10;99.90
12684;DHT22;6406;59.312;18.058;2024-02-21T10:25:47;4.50;99.90
12684;DHT22;6406;59.312;18.058;2024-02-21T10:28:17;3.80;99.90
12684;DHT22;6406;59.312;18.058;2024-02-21T10:30:52;3.80;99.90
12684;DHT22;6406;59.312;18.058;2024-02-21T10:33:23;3.80;99.90
12684;DHT22;6406;59.312;18.058;2024-02-21T10:36:08;3.80;99.90
12684;DHT22;6406;59.312;18.058;2024-02-21T10:38:48;3.50;99.90
12684;DHT22;6406;59.312;18.058;2024-02-21T10:41:16;3.80;99.90
12684;DHT22;6406;59.312;18.058;2024-02-21T10:46:35;3.90;99.90
12684;DHT22;6406;59.312;18.058;2024-02-21T10:49:10;3.80;99.90
12684;DHT22;6406;59.312;18.058;2024-02-21T10:51:47;3.80;99.90
12684;DHT22;6406;59.312;18.058;2024-02-21T10:54:30;3.80;99.90
12684;DHT22;6406;59.312;18.058;2024-02-21T10:57:03;3.80;99.90
12684;DHT22;6406;59.312;18.058;2024-02-21T10:59:32;3.90;99.90
12684;DHT22;6406;59.312;18.058;2024-02-21T11:02:04;3.90;99.90
12684;DHT22;6406;59.312;18.058;2024-02-21T11:04:32;3.90;99.90
12684;DHT22;6406;59.312;18.058;2024-02-21T11:07:07;3.90;99.90
12684;DHT22;6406;59.312;18.058;2024-02-21T11:09:37;3.90;99.90
12684;DHT22;6406;59.312;18.058;2024-02-21T11:12:05;3.90;99.90
12684;DHT22;6406;59.312;18.058;2024-02-21T11:14:34;4.80;99.90
12684;DHT22;6406;59.312;18.058;2024-02-21T11:17:03;5.80;99.90
12684;DHT22;6406;59.312;18.058;2024-02-21T11:19:41;4.00;99.90
12684;DHT22;6406;59.312;18.058;2024-02-21T11:22:14;4.00;99.90
12684;DHT22;6406;59.312;18.058;2024-02-21T11:24:44;3.90;99.90
12684;DHT22;6406;59.312;18.058;2024-02-21T11:27:16;2.00;99.90
12684;DHT22;6406;59.312;18.058;2024-02-21T11:29:47;3.90;99.90
12684;DHT22;6406;59.312;18.058;2024-02-21T11:32:17;4.90;99.90
12684;DHT22;6406;59.312;18.058;2024-02-21T11:35:00;4.50;99.90
12684;DHT22;6406;59.312;18.058;2024-02-21T11:37:43;3.90;99.90
12684;DHT22;6406;59.312;18.058;2024-02-21T11:40:20;4.00;99.90
12684;DHT22;6406;59.312;18.058;2024-02-21T11:42:51;6.60;99.90
12684;DHT22;6406;59.312;18.058;2024-02-21T11:45:19;3.70;99.90
12684;DHT22;6406;59.312;18.058;2024-02-21T11:47:48;3.90;99.90
12684;DHT22;6406;59.312;18.058;2024-02-21T11:50:16;4.00;99.90
12684;DHT22;6406;59.312;18.058;2024-02-21T11:52:48;6.00;99.90
12684;DHT22;6406;59.312;18.058;2024-02-21T11:55:21;5.30;99.90
12684;DHT22;6406;59.312;18.058;2024-02-21T11:58:01;4.10;99.90
12684;DHT22;6406;59.312;18.058;2024-02-21T12:01:00;3.50;99.90
12684;DHT22;6406;59.312;18.058;2024-02-21T12:03:39;4.00;99.90
12684;DHT22;6406;59.312;18.058;2024-02-21T12:06:34;3.90;99.90
12684;DHT22;6406;59.312;18.058;2024-02-21T12:12:20;4.10;99.90
12684;DHT22;6406;59.312;18.058;2024-02-21T12:15:08;4.00;99.90
12684;DHT22;6406;59.312;18.058;2024-02-21T12:18:03;4.10;99.90
12684;DHT22;6406;59.312;18.058;2024-02-21T12:20:41;4.10;99.90
12684;DHT22;6406;59.312;18.058;2024-02-21T12:23:35;4.10;99.90
12684;DHT22;6406;59.312;18.058;2024-02-21T12:26:10;4.10;99.90
12684;DHT22;6406;59.312;18.058;2024-02-21T12:29:11;4.20;99.90
12684;DHT22;6406;59.312;18.058;2024-02-21T12:31:51;4.10;99.90
12684;DHT22;6406;59.312;18.058;2024-02-21T12:34:37;2.30;99.90
12684;DHT22;6406;59.312;18.058;2024-02-21T12:37:22;4.00;99.90
12684;DHT22;6406;59.312;18.058;2024-02-21T12:39:59;5.20;99.90
12684;DHT22;6406;59.312;18.058;2024-02-21T12:42:27;4.20;99.90
12684;DHT22;6406;59.312;18.058;2024-02-21T12:45:16;4.30;99.90
12684;DHT22;6406;59.312;18.058;2024-02-21T12:47:47;4.20;99.90
12684;DHT22;6406;59.312;18.058;2024-02-21T12:50:15;4.30;99.90
12684;DHT22;6406;59.312;18.058;2024-02-21T12:52:45;4.30;99.90
12684;DHT22;6406;59.312;18.058;2024-02-21T12:55:21;4.20;99.90
12684;DHT22;6406;59.312;18.058;2024-02-21T12:57:51;4.30;99.90
12684;DHT22;6406;59.312;18.058;2024-02-21T13:00:21;4.30;99.90
12684;DHT22;6406;59.312;18.058;2024-02-21T13:02:54;4.30;99.90
12684;DHT22;6406;59.312;18.058;2024-02-21T13:05:24;4.40;99.90
12684;DHT22;6406;59.312;18.058;2024-02-21T13:07:52;4.30;99.90
12684;DHT22;6406;59.312;18.058;2024-02-21T13:10:26;4.40;99.90
12684;DHT22;6406;59.312;18.058;2024-02-21T13:15:55;4.50;99.90
12684;DHT22;6406;59.312;18.058;2024-02-21T13:18:36;4.40;99.90
12684;DHT22;6406;59.312;18.058;2024-02-21T13:21:15;4.30;99.90
12684;DHT22;6406;59.312;18.058;2024-02-21T13:24:05;4.30;99.90
12684;DHT22;6406;59.312;18.058;2024-02-21T13:26:41;4.30;99.90
12684;DHT22;6406;59.312;18.058;2024-02-21T14:12:57;4.50;99.90
12684;DHT22;6406;59.312;18.058;2024-02-21T14:15:43;4.40;99.90
12684;DHT22;6406;59.312;18.058;2024-02-21T14:18:36;4.50;99.90
12684;DHT22;6406;59.312;18.058;2024-02-21T14:21:44;2.20;99.90
12684;DHT22;6406;59.312;18.058;2024-02-21T14:27:33;4.50;99.90
12684;DHT22;6406;59.312;18.058;2024-02-21T14:37:45;4.40;99.90
12684;DHT22;6406;59.312;18.058;2024-02-21T14:57:58;2.60;99.90
12684;DHT22;6406;59.312;18.058;2024-02-21T15:00:30;4.10;99.90
12684;DHT22;6406;59.312;18.058;2024-02-21T15:03:00;4.80;99.90
12684;DHT22;6406;59.312;18.058;2024-02-21T15:06:01;4.30;99.90
12684;DHT22;6406;59.312;18.058;2024-02-21T15:08:46;4.30;99.90
12684;DHT22;6406;59.312;18.058;2024-02-21T15:11:17;4.40;99.90
12684;DHT22;6406;59.312;18.058;2024-02-21T15:14:06;4.40;99.90
12684;DHT22;6406;59.312;18.058;2024-02-21T15:16:37;4.40;99.90
12684;DHT22;6406;59.312;18.058;2024-02-21T15:19:05;4.40;99.90
12684;DHT22;6406;59.312;18.058;2024-02-21T15:21:35;4.40;99.90
12684;DHT22;6406;59.312;18.058;2024-02-21T15:24:17;5.90;99.90
12684;DHT22;6406;59.312;18.058;2024-02-21T15:27:05;4.40;99.90
12684;DHT22;6406;59.312;18.058;2024-02-21T15:29:39;4.30;99.90
12684;DHT22;6406;59.312;18.058;2024-02-21T15:32:24;4.10;99.90
12684;DHT22;6406;59.312;18.058;2024-02-21T15:34:56;4.30;99.90
12684;DHT22;6406;59.312;18.058;2024-02-21T15:37:27;4.40;99.90
12684;DHT22;6406;59.312;18.058;2024-02-21T15:39:55;4.10;99.90
12684;DHT22;6406;59.312;18.058;2024-02-21T15:42:27;4.10;99.90
12684;DHT22;6406;59.312;18.058;2024-02-21T15:44:56;4.30;99.90
12684;DHT22;6406;59.312;18.058;2024-02-21T15:47:24;4.40;99.90
12684;DHT22;6406;59.312;18.058;2024-02-21T15:49:53;4.40;99.90
12684;DHT22;6406;59.312;18.058;2024-02-21T15:52:21;4.40;99.90
12684;DHT22;6406;59.312;18.058;2024-02-21T15:54:49;4.30;99.90
12684;DHT22;6406;59.312;18.058;2024-02-21T15:57:16;4.30;99.90
12684;DHT22;6406;59.312;18.058;2024-02-21T15:59:46;5.00;99.90
12684;DHT22;6406;59.312;18.058;2024-02-21T16:02:21;4.30;99.90
12684;DHT22;6406;59.312;18.058;2024-02-21T16:05:01;4.20;99.90
12684;DHT22;6406;59.312;18.058;2024-02-21T16:10:17;4.20;99.90
12684;DHT22;6406;59.312;18.058;2024-02-21T16:12:46;4.20;99.90
12684;DHT22;6406;59.312;18.058;2024-02-21T16:15:17;4.10;99.90
12684;DHT22;6406;59.312;18.058;2024-02-21T16:17:49;4.00;99.90
12684;DHT22;6406;59.312;18.058;2024-02-21T16:20:25;4.00;99.90
12684;DHT22;6406;59.312;18.058;2024-02-21T16:22:58;4.20;99.90
12684;DHT22;6406;59.312;18.058;2024-02-21T16:25:29;4.30;99.90
12684;DHT22;6406;59.312;18.058;2024-02-21T16:28:01;4.00;99.90
12684;DHT22;6406;59.312;18.058;2024-02-21T16:30:30;4.10;99.90
12684;DHT22;6406;59.312;18.058;2024-02-21T16:32:59;4.10;99.90
12684;DHT22;6406;59.312;18.058;2024-02-21T16:35:30;4.10;99.90
12684;DHT22;6406;59.312;18.058;2024-02-21T16:37:57;4.10;99.90
12684;DHT22;6406;59.312;18.058;2024-02-21T16:40:27;4.10;99.90
12684;DHT22;6406;59.312;18.058;2024-02-21T16:42:57;4.00;99.90
12684;DHT22;6406;59.312;18.058;2024-02-21T16:45:28;4.00;99.90
12684;DHT22;6406;59.312;18.058;2024-02-21T16:47:56;3.90;99.90
12684;DHT22;6406;59.312;18.058;2024-02-21T16:50:34;3.80;99.90
12684;DHT22;6406;59.312;18.058;2024-02-21T16:53:02;5.20;99.90
12684;DHT22;6406;59.312;18.058;2024-02-21T16:55:34;4.20;99.90
12684;DHT22;6406;59.312;18.058;2024-02-21T16:58:02;3.90;99.90
12684;DHT22;6406;59.312;18.058;2024-02-21T17:00:30;3.80;99.90
12684;DHT22;6406;59.312;18.058;2024-02-21T17:03:16;3.80;99.90
12684;DHT22;6406;59.312;18.058;2024-02-21T17:05:51;3.90;99.90
12684;DHT22;6406;59.312;18.058;2024-02-21T17:08:18;3.90;99.90
12684;DHT22;6406;59.312;18.058;2024-02-21T17:10:46;3.90;99.90
12684;DHT22;6406;59.312;18.058;2024-02-21T17:13:13;3.90;99.90
12684;DHT22;6406;59.312;18.058;2024-02-21T17:16:00;3.70;99.90
12684;DHT22;6406;59.312;18.058;2024-02-21T17:18:29;3.90;99.90
12684;DHT22;6406;59.312;18.058;2024-02-21T17:21:00;4.00;99.90
12684;DHT22;6406;59.312;18.058;2024-02-21T17:23:28;3.90;99.90
12684;DHT22;6406;59.312;18.058;2024-02-21T17:25:57;4.00;99.90
12684;DHT22;6406;59.312;18.058;2024-02-21T17:28:24;4.00;99.90
12684;DHT22;6406;59.312;18.058;2024-02-21T17:30:52;4.00;99.90
12684;DHT22;6406;59.312;18.058;2024-02-21T17:33:19;4.00;99.90
12684;DHT22;6406;59.312;18.058;2024-02-21T17:35:47;3.80;99.90
12684;DHT22;6406;59.312;18.058;2024-02-21T17:38:17;4.00;99.90
12684;DHT22;6406;59.312;18.058;2024-02-21T17:40:46;3.90;99.90
12684;DHT22;6406;59.312;18.058;2024-02-21T17:43:18;4.00;99.90
12684;DHT22;6406;59.312;18.058;2024-02-21T17:46:04;3.10;99.90
12684;DHT22;6406;59.312;18.058;2024-02-21T17:48:33;3.90;99.90